createdAt,value
2019-03-04T00:00:23.796Z,11.54
2019-03-04T00:01:23.544Z,11.67
2019-03-04T00:02:23.495Z,11.70
2019-03-04T00:03:23.444Z,11.80
2019-03-04T00:04:23.399Z,11.69
2019-03-04T00:05:23.348Z,11.71
2019-03-04T00:06:23.298Z,11.70
2019-03-04T00:07:23.249Z,11.67
2019-03-04T00:08:23.197Z,11.76
2019-03-04T00:09:23.388Z,11.80
2019-03-04T00:10:23.120Z,11.69
2019-03-04T00:11:23.051Z,11.71
2019-03-04T00:12:23.003Z,11.84
2019-03-04T00:13:22.954Z,11.76
2019-03-04T00:14:22.903Z,11.73
2019-03-04T00:15:22.858Z,11.71
2019-03-04T00:16:23.025Z,11.69
2019-03-04T00:17:22.757Z,11.70
2019-03-04T00:18:22.718Z,11.74
2019-03-04T00:19:22.666Z,11.89
2019-03-04T00:20:22.610Z,11.89
2019-03-04T00:21:22.557Z,11.89
2019-03-04T00:22:22.512Z,11.91
2019-03-04T00:23:22.613Z,11.91
2019-03-04T00:24:22.416Z,11.82
2019-03-04T00:25:22.368Z,11.76
2019-03-04T00:26:22.314Z,11.70
2019-03-04T00:27:22.288Z,11.73
2019-03-04T00:28:22.220Z,11.59
2019-03-04T00:29:22.173Z,11.67
2019-03-04T00:30:22.334Z,11.69
2019-03-04T00:31:22.071Z,11.70
2019-03-04T00:32:22.019Z,11.69
2019-03-04T00:33:22.002Z,11.64
2019-03-04T00:34:21.921Z,11.69
2019-03-04T00:35:21.872Z,11.76
2019-03-04T00:36:21.824Z,11.79
2019-03-04T00:37:22.480Z,11.69
2019-03-04T00:38:21.769Z,11.71
2019-03-04T00:39:21.673Z,11.80
2019-03-04T00:40:21.730Z,11.70
2019-03-04T00:41:21.580Z,11.67
2019-03-04T00:42:21.735Z,11.73
2019-03-04T00:43:21.478Z,11.70
2019-03-04T00:44:21.429Z,11.67
2019-03-04T00:45:21.464Z,11.69
2019-03-04T00:46:21.329Z,11.67
2019-03-04T00:47:21.438Z,11.73
2019-03-04T00:48:21.231Z,11.67
2019-03-04T00:49:21.190Z,11.69
2019-03-04T00:50:21.134Z,11.67
2019-03-04T00:51:21.089Z,11.58
2019-03-04T00:52:21.242Z,11.64
2019-03-04T00:53:20.984Z,11.66
2019-03-04T00:54:20.937Z,11.58
2019-03-04T00:55:20.886Z,11.55
2019-03-04T00:56:20.840Z,11.55
2019-03-04T00:57:20.808Z,11.56
2019-03-04T00:58:20.746Z,11.46
2019-03-04T00:59:20.847Z,11.40
2019-03-04T01:00:20.641Z,11.33
2019-03-04T01:01:20.590Z,11.27
2019-03-04T01:02:20.553Z,11.30
2019-03-04T01:03:20.495Z,11.20
2019-03-04T01:04:20.464Z,11.18
2019-03-04T01:05:20.394Z,11.20
2019-03-04T01:06:20.554Z,11.16
2019-03-04T01:07:20.297Z,11.16
2019-03-04T01:08:20.252Z,11.16
2019-03-04T01:09:20.206Z,11.12
2019-03-04T01:10:20.150Z,11.09
2019-03-04T01:11:20.103Z,11.16
2019-03-04T01:12:20.051Z,11.19
2019-03-04T01:13:20.007Z,11.16
2019-03-04T01:14:19.953Z,11.13
2019-03-04T01:15:22.164Z,11.13
2019-03-04T01:16:19.858Z,11.13
2019-03-04T01:17:19.957Z,11.12
2019-03-04T01:18:19.764Z,11.03
2019-03-04T01:19:19.708Z,11.09
2019-03-04T01:20:19.660Z,11.03
2019-03-04T01:21:19.610Z,11.08
2019-03-04T01:22:19.580Z,11.00
2019-03-04T01:23:19.512Z,11.08
2019-03-04T01:24:19.666Z,11.05
2019-03-04T01:25:19.421Z,11.03
2019-03-04T01:26:19.365Z,10.98
2019-03-04T01:27:19.329Z,10.94
2019-03-04T01:28:19.270Z,10.86
2019-03-04T01:29:19.223Z,10.83
2019-03-04T01:30:19.169Z,10.78
2019-03-04T01:31:19.348Z,10.75
2019-03-04T01:32:19.074Z,10.78
2019-03-04T01:33:19.258Z,10.73
2019-03-04T01:34:18.972Z,10.73
2019-03-04T01:35:18.935Z,10.75
2019-03-04T01:36:18.889Z,10.70
2019-03-04T01:37:18.835Z,10.70
2019-03-04T01:38:18.775Z,10.73
2019-03-04T01:39:18.729Z,10.67
2019-03-04T01:40:18.876Z,10.68
2019-03-04T01:41:18.631Z,10.72
2019-03-04T01:42:18.583Z,10.68
2019-03-04T01:43:18.545Z,10.76
2019-03-04T01:44:18.484Z,10.62
2019-03-04T01:45:18.455Z,10.64
2019-03-04T01:46:18.387Z,10.70
2019-03-04T01:47:18.566Z,10.55
2019-03-04T01:48:18.287Z,10.54
2019-03-04T01:49:18.246Z,10.55
2019-03-04T01:50:18.199Z,10.58
2019-03-04T01:51:18.144Z,10.52
2019-03-04T01:52:18.110Z,10.55
2019-03-04T01:53:18.040Z,10.60
2019-03-04T01:54:18.179Z,10.58
2019-03-04T01:55:17.943Z,10.49
2019-03-04T01:56:17.899Z,10.43
2019-03-04T01:57:17.854Z,10.42
2019-03-04T01:58:17.800Z,10.42
2019-03-04T01:59:17.763Z,10.48
2019-03-04T02:00:17.699Z,10.45
2019-03-04T02:01:17.857Z,10.42
2019-03-04T02:02:17.598Z,10.39
2019-03-04T02:03:17.786Z,10.36
2019-03-04T02:04:17.499Z,10.39
2019-03-04T02:05:17.449Z,10.31
2019-03-04T02:06:17.405Z,10.31
2019-03-04T02:07:17.351Z,10.26
2019-03-04T02:08:17.301Z,10.21
2019-03-04T02:09:17.259Z,10.26
2019-03-04T02:10:17.203Z,10.26
2019-03-04T02:11:17.154Z,10.16
2019-03-04T02:12:17.300Z,10.16
2019-03-04T02:13:17.057Z,10.05
2019-03-04T02:14:17.006Z,10.09
2019-03-04T02:15:17.040Z,10.02
2019-03-04T02:16:16.911Z,10.01
2019-03-04T02:17:16.857Z,10.02
2019-03-04T02:18:16.815Z,9.98
2019-03-04T02:19:16.792Z,10.01
2019-03-04T02:20:16.712Z,10.02
2019-03-04T02:21:16.894Z,10.06
2019-03-04T02:22:16.610Z,9.94
2019-03-04T02:23:16.561Z,10.03
2019-03-04T02:24:16.587Z,10.05
2019-03-04T02:25:16.462Z,9.90
2019-03-04T02:26:16.412Z,9.90
2019-03-04T02:27:16.364Z,9.91
2019-03-04T02:28:16.314Z,9.81
2019-03-04T02:29:16.270Z,9.78
2019-03-04T02:30:16.407Z,9.80
2019-03-04T02:31:16.167Z,9.75
2019-03-04T02:32:16.131Z,9.63
2019-03-04T02:33:16.082Z,9.66
2019-03-04T02:34:16.018Z,9.60
2019-03-04T02:35:15.971Z,9.50
2019-03-04T02:36:15.918Z,9.50
2019-03-04T02:37:16.098Z,9.51
2019-03-04T02:38:15.826Z,9.41
2019-03-04T02:39:15.782Z,9.40
2019-03-04T02:40:15.738Z,9.41
2019-03-04T02:41:15.670Z,9.27
2019-03-04T02:42:15.623Z,9.18
2019-03-04T02:43:15.574Z,9.14
2019-03-04T02:44:15.707Z,9.11
2019-03-04T02:45:15.471Z,9.01
2019-03-04T02:46:15.421Z,8.89
2019-03-04T02:47:15.389Z,8.86
2019-03-04T02:48:15.325Z,8.85
2019-03-04T02:49:15.278Z,8.77
2019-03-04T02:50:15.223Z,8.70
2019-03-04T02:51:15.173Z,8.57
2019-03-04T02:52:15.126Z,8.59
2019-03-04T02:53:15.323Z,8.56
2019-03-04T02:54:15.022Z,8.49
2019-03-04T02:55:14.975Z,8.39
2019-03-04T02:56:14.940Z,8.42
2019-03-04T02:57:14.873Z,8.39
2019-03-04T02:58:14.831Z,8.31
2019-03-04T02:59:14.778Z,8.38
2019-03-04T03:00:14.726Z,8.41
2019-03-04T03:01:14.675Z,8.37
2019-03-04T03:02:14.825Z,8.42
2019-03-04T03:03:14.575Z,8.37
2019-03-04T03:04:14.524Z,8.39
2019-03-04T03:05:14.481Z,8.39
2019-03-04T03:06:14.424Z,8.39
2019-03-04T03:07:14.376Z,8.47
2019-03-04T03:08:14.325Z,8.42
2019-03-04T03:09:14.511Z,8.42
2019-03-04T03:10:14.283Z,8.50
2019-03-04T03:11:14.178Z,8.44
2019-03-04T03:12:14.143Z,8.39
2019-03-04T03:13:14.073Z,8.38
2019-03-04T03:14:14.035Z,8.31
2019-03-04T03:15:13.981Z,8.24
2019-03-04T03:16:14.454Z,8.21
2019-03-04T03:17:13.893Z,8.21
2019-03-04T03:18:13.832Z,8.26
2019-03-04T03:19:13.790Z,8.23
2019-03-04T03:20:13.721Z,8.24
2019-03-04T03:21:13.672Z,8.35
2019-03-04T03:22:13.631Z,8.28
2019-03-04T03:23:13.573Z,8.29
2019-03-04T03:24:13.520Z,8.24
2019-03-04T03:25:13.472Z,8.17
2019-03-04T03:26:13.446Z,8.20
2019-03-04T03:27:13.369Z,8.23
2019-03-04T03:28:13.322Z,8.28
2019-03-04T03:29:13.276Z,8.14
2019-03-04T03:30:13.246Z,8.12
2019-03-04T03:31:13.169Z,8.04
2019-03-04T03:32:13.146Z,8.16
2019-03-04T03:33:13.084Z,8.32
2019-03-04T03:34:13.020Z,8.24
2019-03-04T03:35:12.972Z,8.09
2019-03-04T03:36:12.921Z,8.12
2019-03-04T03:37:12.867Z,8.10
2019-03-04T03:38:12.820Z,8.06
2019-03-04T03:39:12.762Z,8.09
2019-03-04T03:40:12.713Z,8.02
2019-03-04T03:41:12.662Z,7.95
2019-03-04T03:42:12.620Z,7.86
2019-03-04T03:43:12.562Z,7.91
2019-03-04T03:44:12.512Z,7.88
2019-03-04T03:45:12.459Z,7.78
2019-03-04T03:46:12.409Z,7.74
2019-03-04T03:47:12.360Z,7.80
2019-03-04T03:48:12.311Z,7.84
2019-03-04T03:49:12.267Z,7.77
2019-03-04T03:50:12.219Z,7.77
2019-03-04T03:51:12.154Z,7.74
2019-03-04T03:52:12.106Z,7.76
2019-03-04T03:53:12.055Z,7.69
2019-03-04T03:54:12.079Z,7.78
2019-03-04T03:55:11.961Z,7.83
2019-03-04T03:56:11.914Z,7.86
2019-03-04T03:57:11.853Z,7.98
2019-03-04T03:58:11.804Z,8.06
2019-03-04T03:59:11.751Z,8.02
2019-03-04T04:00:11.700Z,8.19
2019-03-04T04:01:11.646Z,8.01
2019-03-04T04:02:11.595Z,8.02
2019-03-04T04:03:11.542Z,8.14
2019-03-04T04:04:11.496Z,8.24
2019-03-04T04:05:11.444Z,8.26
2019-03-04T04:06:11.392Z,8.12
2019-03-04T04:07:11.443Z,8.16
2019-03-04T04:08:11.292Z,8.13
2019-03-04T04:09:11.249Z,8.12
2019-03-04T04:10:11.195Z,8.10
2019-03-04T04:11:11.157Z,8.04
2019-03-04T04:12:11.095Z,8.12
2019-03-04T04:13:11.036Z,7.99
2019-03-04T04:14:11.080Z,8.02
2019-03-04T04:15:10.935Z,8.06
2019-03-04T04:16:11.069Z,7.96
2019-03-04T04:17:10.834Z,7.98
2019-03-04T04:18:10.792Z,7.95
2019-03-04T04:19:10.805Z,8.02
2019-03-04T04:20:10.683Z,7.98
2019-03-04T04:21:10.882Z,8.02
2019-03-04T04:22:10.579Z,8.04
2019-03-04T04:23:10.531Z,8.09
2019-03-04T04:24:10.549Z,7.99
2019-03-04T04:25:10.428Z,8.06
2019-03-04T04:26:10.579Z,8.05
2019-03-04T04:27:10.324Z,8.01
2019-03-04T04:28:10.272Z,7.99
2019-03-04T04:29:10.230Z,8.01
2019-03-04T04:30:10.174Z,8.04
2019-03-04T04:31:10.245Z,8.01
2019-03-04T04:32:10.075Z,7.87
2019-03-04T04:33:10.189Z,7.88
2019-03-04T04:34:09.968Z,7.87
2019-03-04T04:35:09.922Z,7.81
2019-03-04T04:36:09.866Z,7.80
2019-03-04T04:37:09.815Z,7.66
2019-03-04T04:38:09.770Z,7.60
2019-03-04T04:39:09.714Z,7.44
2019-03-04T04:40:09.887Z,7.50
2019-03-04T04:41:09.610Z,7.49
2019-03-04T04:42:09.559Z,7.40
2019-03-04T04:43:09.508Z,7.43
2019-03-04T04:44:09.458Z,7.36
2019-03-04T04:45:09.419Z,7.29
2019-03-04T04:46:09.358Z,7.29
2019-03-04T04:47:09.497Z,7.13
2019-03-04T04:48:09.260Z,7.16
2019-03-04T04:49:09.201Z,7.19
2019-03-04T04:50:09.153Z,7.07
2019-03-04T04:51:09.102Z,7.08
2019-03-04T04:52:09.060Z,7.07
2019-03-04T04:53:09.003Z,7.10
2019-03-04T04:54:09.192Z,6.89
2019-03-04T04:55:08.897Z,6.93
2019-03-04T04:56:08.846Z,6.93
2019-03-04T04:57:08.791Z,6.85
2019-03-04T04:58:08.745Z,6.83
2019-03-04T04:59:08.703Z,6.73
2019-03-04T05:00:08.641Z,6.65
2019-03-04T05:01:08.770Z,6.53
2019-03-04T05:02:08.539Z,6.55
2019-03-04T05:03:08.690Z,6.65
2019-03-04T05:04:08.436Z,6.64
2019-03-04T05:05:08.387Z,6.70
2019-03-04T05:06:08.335Z,6.68
2019-03-04T05:07:08.282Z,6.71
2019-03-04T05:08:08.238Z,6.64
2019-03-04T05:09:08.179Z,6.55
2019-03-04T05:10:08.336Z,6.46
2019-03-04T05:11:08.079Z,6.45
2019-03-04T05:12:08.028Z,6.42
2019-03-04T05:13:07.976Z,6.35
2019-03-04T05:14:07.928Z,6.24
2019-03-04T05:15:07.898Z,6.18
2019-03-04T05:16:07.822Z,6.21
2019-03-04T05:17:08.016Z,6.24
2019-03-04T05:18:07.725Z,6.34
2019-03-04T05:19:07.667Z,6.43
2019-03-04T05:20:07.623Z,6.27
2019-03-04T05:21:07.564Z,6.18
2019-03-04T05:22:07.544Z,6.09
2019-03-04T05:23:07.466Z,6.02
2019-03-04T05:24:07.603Z,6.03
2019-03-04T05:25:07.360Z,6.00
2019-03-04T05:26:07.309Z,5.91
2019-03-04T05:27:07.257Z,5.90
2019-03-04T05:28:07.213Z,5.79
2019-03-04T05:29:07.162Z,5.85
2019-03-04T05:30:07.104Z,5.80
2019-03-04T05:31:07.195Z,5.85
2019-03-04T05:32:07.001Z,5.76
2019-03-04T05:33:07.114Z,5.90
2019-03-04T05:34:06.901Z,5.85
2019-03-04T05:35:06.845Z,5.88
2019-03-04T05:36:06.796Z,5.95
2019-03-04T05:37:06.743Z,5.91
2019-03-04T05:38:06.700Z,5.90
2019-03-04T05:39:06.641Z,5.94
2019-03-04T05:40:06.827Z,5.98
2019-03-04T05:41:06.536Z,5.95
2019-03-04T05:42:06.484Z,5.98
2019-03-04T05:43:06.433Z,5.88
2019-03-04T05:44:06.382Z,5.82
2019-03-04T05:45:06.329Z,5.90
2019-03-04T05:46:06.277Z,5.80
2019-03-04T05:47:06.428Z,5.79
2019-03-04T05:48:07.733Z,5.73
2019-03-04T05:49:06.131Z,5.72
2019-03-04T05:50:06.078Z,5.70
2019-03-04T05:51:06.020Z,5.72
2019-03-04T05:52:05.969Z,5.66
2019-03-04T05:53:05.918Z,5.72
2019-03-04T05:54:06.039Z,5.65
2019-03-04T05:55:05.812Z,5.61
2019-03-04T05:56:05.763Z,5.54
2019-03-04T05:57:05.751Z,5.58
2019-03-04T05:58:05.665Z,5.48
2019-03-04T05:59:05.608Z,5.40
2019-03-04T06:00:05.558Z,5.40
2019-03-04T06:01:05.503Z,5.37
2019-03-04T06:02:05.451Z,5.39
2019-03-04T06:03:05.641Z,5.36
2019-03-04T06:04:05.348Z,5.34
2019-03-04T06:05:05.295Z,5.32
2019-03-04T06:06:05.277Z,5.30
2019-03-04T06:07:05.192Z,5.29
2019-03-04T06:08:05.141Z,5.33
2019-03-04T06:09:05.093Z,5.32
2019-03-04T06:10:05.038Z,5.32
2019-03-04T06:11:04.989Z,5.30
2019-03-04T06:12:05.150Z,5.30
2019-03-04T06:13:04.882Z,5.30
2019-03-04T06:14:04.830Z,5.34
2019-03-04T06:15:04.826Z,5.29
2019-03-04T06:16:04.726Z,5.30
2019-03-04T06:17:04.677Z,5.33
2019-03-04T06:18:04.628Z,5.29
2019-03-04T06:19:04.570Z,5.34
2019-03-04T06:20:04.522Z,5.29
2019-03-04T06:21:04.660Z,5.41
2019-03-04T06:22:04.416Z,5.32
2019-03-04T06:23:04.361Z,5.32
2019-03-04T06:24:04.373Z,5.39
2019-03-04T06:25:07.340Z,5.41
2019-03-04T06:26:04.205Z,5.41
2019-03-04T06:27:04.153Z,5.37
2019-03-04T06:28:04.124Z,5.34
2019-03-04T06:29:04.078Z,5.40
2019-03-04T06:30:04.170Z,5.40
2019-03-04T06:31:03.945Z,5.40
2019-03-04T06:32:03.896Z,5.36
2019-03-04T06:33:03.842Z,5.41
2019-03-04T06:34:03.793Z,5.43
2019-03-04T06:35:03.739Z,5.40
2019-03-04T06:36:03.687Z,5.52
2019-03-04T06:37:03.653Z,5.52
2019-03-04T06:38:03.589Z,5.61
2019-03-04T06:39:03.757Z,5.67
2019-03-04T06:40:03.480Z,5.72
2019-03-04T06:41:03.426Z,5.79
2019-03-04T06:42:03.469Z,5.73
2019-03-04T06:43:03.327Z,5.80
2019-03-04T06:44:03.274Z,5.90
2019-03-04T06:45:03.224Z,5.91
2019-03-04T06:46:03.189Z,5.98
2019-03-04T06:47:03.119Z,6.06
2019-03-04T06:48:03.266Z,6.11
2019-03-04T06:49:03.022Z,6.27
2019-03-04T06:50:02.964Z,6.34
2019-03-04T06:51:02.912Z,6.40
2019-03-04T06:52:02.862Z,6.53
2019-03-04T06:53:02.809Z,6.53
2019-03-04T06:54:02.759Z,6.68
2019-03-04T06:55:02.723Z,6.71
2019-03-04T06:56:02.654Z,6.73
2019-03-04T06:57:02.765Z,6.85
2019-03-04T06:58:02.556Z,6.89
2019-03-04T06:59:02.499Z,6.88
2019-03-04T07:00:02.567Z,6.88
2019-03-04T07:01:02.396Z,7.03
2019-03-04T07:02:02.346Z,7.03
2019-03-04T07:03:02.294Z,7.06
2019-03-04T07:04:02.263Z,7.06
2019-03-04T07:05:02.194Z,7.10
2019-03-04T07:06:02.369Z,7.04
2019-03-04T07:07:02.089Z,7.08
2019-03-04T07:08:02.039Z,7.13
2019-03-04T07:09:01.994Z,7.24
2019-03-04T07:10:01.938Z,7.31
2019-03-04T07:11:01.886Z,7.29
2019-03-04T07:12:01.839Z,7.43
2019-03-04T07:13:01.802Z,7.58
2019-03-04T07:14:01.735Z,7.73
2019-03-04T07:15:01.869Z,7.94
2019-03-04T07:16:01.632Z,7.86
2019-03-04T07:17:01.581Z,8.10
2019-03-04T07:18:01.540Z,8.09
2019-03-04T07:19:01.484Z,8.16
2019-03-04T07:20:01.432Z,8.29
2019-03-04T07:21:01.376Z,8.38
2019-03-04T07:22:01.327Z,8.41
2019-03-04T07:23:01.279Z,8.42
2019-03-04T07:24:01.244Z,8.50
2019-03-04T07:25:01.175Z,8.63
2019-03-04T07:26:01.281Z,8.56
2019-03-04T07:27:01.075Z,8.68
2019-03-04T07:28:01.026Z,8.56
2019-03-04T07:29:00.985Z,8.67
2019-03-04T07:30:00.924Z,8.71
2019-03-04T07:31:00.876Z,8.78
2019-03-04T07:32:00.832Z,8.72
2019-03-04T07:33:00.795Z,8.81
2019-03-04T07:34:00.725Z,8.96
2019-03-04T07:35:00.904Z,9.16
2019-03-04T07:36:00.625Z,9.19
2019-03-04T07:37:00.577Z,9.23
2019-03-04T07:38:00.532Z,9.45
2019-03-04T07:39:00.474Z,9.40
2019-03-04T07:40:00.426Z,9.51
2019-03-04T07:41:00.376Z,9.72
2019-03-04T07:42:00.343Z,9.66
2019-03-04T07:43:00.277Z,9.67
2019-03-04T07:44:00.400Z,9.72
2019-03-04T07:45:00.322Z,9.88
2019-03-04T07:46:00.137Z,10.02
2019-03-04T07:47:00.117Z,9.88
2019-03-04T07:48:00.346Z,9.91
2019-03-04T07:48:59.992Z,10.16
2019-03-04T07:49:59.932Z,10.23
2019-03-04T07:50:59.900Z,10.20
2019-03-04T07:51:59.832Z,9.99
2019-03-04T07:53:00.012Z,10.09
2019-03-04T07:53:59.740Z,10.02
2019-03-04T07:54:59.687Z,10.12
2019-03-04T07:55:59.670Z,10.09
2019-03-04T07:56:59.587Z,10.10
2019-03-04T07:57:59.544Z,10.24
2019-03-04T07:58:59.492Z,10.31
2019-03-04T07:59:59.442Z,10.36
2019-03-04T08:00:59.392Z,10.41
2019-03-04T08:01:59.359Z,10.57
2019-03-04T08:02:59.295Z,10.79
2019-03-04T08:03:59.412Z,10.93
2019-03-04T08:04:59.198Z,11.11
2019-03-04T08:05:59.152Z,11.19
2019-03-04T08:06:59.126Z,11.20
2019-03-04T08:07:59.054Z,11.16
2019-03-04T08:08:59.009Z,11.36
2019-03-04T08:09:58.956Z,11.54
2019-03-04T08:11:01.169Z,11.56
2019-03-04T08:11:58.858Z,11.54
2019-03-04T08:12:59.025Z,11.69
2019-03-04T08:13:58.763Z,11.55
2019-03-04T08:14:58.713Z,11.73
2019-03-04T08:15:58.776Z,11.80
2019-03-04T08:16:58.616Z,11.85
2019-03-04T08:17:58.578Z,11.93
2019-03-04T08:18:58.523Z,11.96
2019-03-04T08:19:58.473Z,11.93
2019-03-04T08:20:58.425Z,12.17
2019-03-04T08:21:58.377Z,11.99
2019-03-04T08:22:58.331Z,12.15
2019-03-04T08:23:58.305Z,12.26
2019-03-04T08:24:58.237Z,12.43
2019-03-04T08:25:58.420Z,12.41
2019-03-04T08:26:58.141Z,12.55
2019-03-04T08:27:58.095Z,12.71
2019-03-04T08:28:58.750Z,12.68
2019-03-04T08:29:57.998Z,12.81
2019-03-04T08:30:57.948Z,12.77
2019-03-04T08:31:57.902Z,12.87
2019-03-04T08:32:57.872Z,13.01
2019-03-04T08:33:57.807Z,13.09
2019-03-04T08:34:57.932Z,13.26
2019-03-04T08:35:57.712Z,13.45
2019-03-04T08:36:57.663Z,13.64
2019-03-04T08:37:57.629Z,13.72
2019-03-04T08:38:57.568Z,13.72
2019-03-04T08:39:57.523Z,13.72
2019-03-04T08:40:57.482Z,13.98
2019-03-04T08:41:57.447Z,14.16
2019-03-04T08:42:57.381Z,14.28
2019-03-04T08:43:57.548Z,14.33
2019-03-04T08:44:57.286Z,14.33
2019-03-04T08:45:57.240Z,14.33
2019-03-04T08:46:57.249Z,14.56
2019-03-04T08:47:57.149Z,14.92
2019-03-04T08:48:57.109Z,14.97
2019-03-04T08:49:57.055Z,15.07
2019-03-04T08:50:57.016Z,15.08
2019-03-04T08:51:56.962Z,15.12
2019-03-04T08:52:57.147Z,15.43
2019-03-04T08:53:56.867Z,15.60
2019-03-04T08:54:56.820Z,15.87
2019-03-04T08:55:56.797Z,16.08
2019-03-04T08:57:03.697Z,16.13
2019-03-04T08:57:56.687Z,16.14
2019-03-04T08:58:56.635Z,16.06
2019-03-04T08:59:56.620Z,16.08
2019-03-04T09:00:56.545Z,16.06
2019-03-04T09:01:56.515Z,16.13
2019-03-04T09:02:56.450Z,16.08
2019-03-04T09:03:56.642Z,16.17
2019-03-04T09:04:56.362Z,16.13
2019-03-04T09:05:56.315Z,16.18
2019-03-04T09:06:56.277Z,16.14
2019-03-04T09:07:56.223Z,16.09
2019-03-04T09:08:56.183Z,16.08
2019-03-04T09:09:56.130Z,16.18
2019-03-04T09:10:56.102Z,16.13
2019-03-04T09:11:56.037Z,16.21
2019-03-04T09:12:56.161Z,16.14
2019-03-04T09:13:55.946Z,16.14
2019-03-04T09:14:55.901Z,16.25
2019-03-04T09:15:55.907Z,16.16
2019-03-04T09:16:55.809Z,16.22
2019-03-04T09:17:55.769Z,16.18
2019-03-04T09:18:55.786Z,16.10
2019-03-04T09:19:55.672Z,16.26
2019-03-04T09:20:55.626Z,16.14
2019-03-04T09:21:55.639Z,16.10
2019-03-04T09:22:55.531Z,16.24
2019-03-04T09:23:55.672Z,16.10
2019-03-04T09:24:55.440Z,16.05
2019-03-04T09:25:55.393Z,16.06
2019-03-04T09:26:55.368Z,16.21
2019-03-04T09:27:55.303Z,16.00
2019-03-04T09:28:55.259Z,16.06
2019-03-04T09:29:55.209Z,15.95
2019-03-04T09:30:55.181Z,15.87
2019-03-04T09:31:55.118Z,15.76
2019-03-04T09:32:55.268Z,15.68
2019-03-04T09:33:55.030Z,15.80
2019-03-04T09:34:54.982Z,15.69
2019-03-04T09:35:55.018Z,15.70
2019-03-04T09:36:54.887Z,15.69
2019-03-04T09:37:54.845Z,15.68
2019-03-04T09:38:54.793Z,15.59
2019-03-04T09:39:54.747Z,15.58
2019-03-04T09:40:54.701Z,15.52
2019-03-04T09:41:54.674Z,15.45
2019-03-04T09:42:54.608Z,15.62
2019-03-04T09:43:54.768Z,15.54
2019-03-04T09:44:54.514Z,15.50
2019-03-04T09:45:54.468Z,15.50
2019-03-04T09:46:54.478Z,15.45
2019-03-04T09:47:54.377Z,15.41
2019-03-04T09:48:54.339Z,15.26
2019-03-04T09:49:54.282Z,15.25
2019-03-04T09:50:54.236Z,15.27
2019-03-04T09:51:54.195Z,15.27
2019-03-04T09:52:54.390Z,15.22
2019-03-04T09:53:54.095Z,15.22
2019-03-04T09:54:54.068Z,15.23
2019-03-04T09:55:54.007Z,15.23
2019-03-04T09:56:53.958Z,15.17
2019-03-04T09:57:53.917Z,15.27
2019-03-04T09:58:53.873Z,15.12
2019-03-04T09:59:53.839Z,15.15
2019-03-04T10:00:53.774Z,15.10
2019-03-04T10:01:53.894Z,15.04
2019-03-04T10:02:53.681Z,15.01
2019-03-04T10:03:53.636Z,14.96
2019-03-04T10:04:53.586Z,14.97
2019-03-04T10:05:53.542Z,14.92
2019-03-04T10:06:53.493Z,14.99
2019-03-04T10:07:53.448Z,14.99
2019-03-04T10:08:53.421Z,14.92
2019-03-04T10:09:53.357Z,14.90
2019-03-04T10:10:53.499Z,14.82
2019-03-04T10:11:53.262Z,14.64
2019-03-04T10:12:53.215Z,14.73
2019-03-04T10:13:53.168Z,14.73
2019-03-04T10:14:53.121Z,14.73
2019-03-04T10:15:53.076Z,14.70
2019-03-04T10:16:53.028Z,14.63
2019-03-04T10:17:53.004Z,14.56
2019-03-04T10:18:52.934Z,14.52
2019-03-04T10:19:53.090Z,14.51
2019-03-04T10:20:52.840Z,14.53
2019-03-04T10:21:52.793Z,14.49
2019-03-04T10:22:52.778Z,14.44
2019-03-04T10:23:52.700Z,14.61
2019-03-04T10:24:52.654Z,14.77
2019-03-04T10:25:52.606Z,14.63
2019-03-04T10:26:52.577Z,14.46
2019-03-04T10:27:52.513Z,14.44
2019-03-04T10:28:52.491Z,14.46
2019-03-04T10:29:52.415Z,14.40
2019-03-04T10:30:52.619Z,14.52
2019-03-04T10:31:52.324Z,14.48
2019-03-04T10:32:52.277Z,14.52
2019-03-04T10:33:52.340Z,14.48
2019-03-04T10:34:52.186Z,14.48
2019-03-04T10:35:52.136Z,14.33
2019-03-04T10:36:52.089Z,14.31
2019-03-04T10:37:52.060Z,14.26
2019-03-04T10:38:51.993Z,14.22
2019-03-04T10:39:51.968Z,14.22
2019-03-04T10:40:51.900Z,14.16
2019-03-04T10:41:52.017Z,14.19
2019-03-04T10:42:51.809Z,14.21
2019-03-04T10:43:51.761Z,14.13
2019-03-04T10:44:51.713Z,14.18
2019-03-04T10:45:51.705Z,14.19
2019-03-04T10:46:51.620Z,14.03
2019-03-04T10:47:51.573Z,14.00
2019-03-04T10:48:51.531Z,13.98
2019-03-04T10:49:51.477Z,14.03
2019-03-04T10:50:51.628Z,13.97
2019-03-04T10:51:51.383Z,13.97
2019-03-04T10:52:51.335Z,13.91
2019-03-04T10:53:51.347Z,13.85
2019-03-04T10:54:51.243Z,13.91
2019-03-04T10:55:51.192Z,13.85
2019-03-04T10:56:51.144Z,13.79
2019-03-04T10:57:51.122Z,13.68
2019-03-04T10:58:51.057Z,13.43
2019-03-04T10:59:51.225Z,13.29
2019-03-04T11:00:50.954Z,13.05
2019-03-04T11:01:50.907Z,12.81
2019-03-04T11:02:50.897Z,12.84
2019-03-04T11:03:50.813Z,13.04
2019-03-04T11:04:50.766Z,12.99
2019-03-04T11:05:50.715Z,12.84
2019-03-04T11:06:50.687Z,12.84
2019-03-04T11:07:50.622Z,12.73
2019-03-04T11:08:50.638Z,12.68
2019-03-04T11:09:50.525Z,12.62
2019-03-04T11:10:50.619Z,12.59
2019-03-04T11:11:50.432Z,12.65
2019-03-04T11:12:50.381Z,12.55
2019-03-04T11:13:50.355Z,12.18
2019-03-04T11:14:50.285Z,12.07
2019-03-04T11:15:50.237Z,12.00
2019-03-04T11:16:50.186Z,12.03
2019-03-04T11:17:50.168Z,11.97
2019-03-04T11:18:50.130Z,11.95
2019-03-04T11:19:50.233Z,11.88
2019-03-04T11:20:49.996Z,11.85
2019-03-04T11:21:49.946Z,11.70
2019-03-04T11:22:50.006Z,11.64
2019-03-04T11:23:49.849Z,11.59
2019-03-04T11:24:49.798Z,11.61
2019-03-04T11:25:49.750Z,11.55
2019-03-04T11:26:49.721Z,11.54
2019-03-04T11:27:49.654Z,11.51
2019-03-04T11:28:49.629Z,11.41
2019-03-04T11:29:49.557Z,11.27
2019-03-04T11:30:49.739Z,11.28
2019-03-04T11:31:49.457Z,11.18
2019-03-04T11:32:49.408Z,11.03
2019-03-04T11:33:49.466Z,10.93
2019-03-04T11:34:49.310Z,10.83
2019-03-04T11:35:49.261Z,10.76
2019-03-04T11:36:49.212Z,10.80
2019-03-04T11:37:49.167Z,10.67
2019-03-04T11:38:49.114Z,10.79
2019-03-04T11:39:49.083Z,10.65
2019-03-04T11:40:49.015Z,10.75
2019-03-04T11:41:49.145Z,10.73
2019-03-04T11:42:50.515Z,10.72
2019-03-04T11:43:48.869Z,10.67
2019-03-04T11:44:48.927Z,10.76
2019-03-04T11:45:48.768Z,10.75
2019-03-04T11:46:48.719Z,10.72
2019-03-04T11:47:48.670Z,10.83
2019-03-04T11:48:48.628Z,10.91
2019-03-04T11:49:48.570Z,11.03
2019-03-04T11:50:48.543Z,11.01
2019-03-04T11:51:48.470Z,11.12
2019-03-04T11:52:48.661Z,11.11
2019-03-04T11:53:48.376Z,11.08
2019-03-04T11:54:48.330Z,11.12
2019-03-04T11:55:48.386Z,11.12
2019-03-04T11:56:48.221Z,11.11
2019-03-04T11:57:48.179Z,11.18
2019-03-04T11:58:48.122Z,11.16
2019-03-04T11:59:48.077Z,11.08
2019-03-04T12:00:48.031Z,11.12
2019-03-04T12:01:47.994Z,11.09
2019-03-04T12:02:47.926Z,11.03
2019-03-04T12:03:48.077Z,11.01
2019-03-04T12:04:47.826Z,10.95
2019-03-04T12:05:47.780Z,11.00
2019-03-04T12:06:47.728Z,11.08
2019-03-04T12:07:47.680Z,10.82
2019-03-04T12:08:47.639Z,10.61
2019-03-04T12:09:47.581Z,10.60
2019-03-04T12:10:47.548Z,10.72
2019-03-04T12:11:47.482Z,10.55
2019-03-04T12:12:47.666Z,10.58
2019-03-04T12:13:47.383Z,10.48
2019-03-04T12:14:47.332Z,10.43
2019-03-04T12:15:47.393Z,10.41
2019-03-04T12:16:47.230Z,10.41
2019-03-04T12:17:47.191Z,10.27
2019-03-04T12:18:47.212Z,10.39
2019-03-04T12:19:47.085Z,10.23
2019-03-04T12:20:47.036Z,10.24
2019-03-04T12:21:46.985Z,10.28
2019-03-04T12:22:46.937Z,10.26
2019-03-04T12:23:46.887Z,10.12
2019-03-04T12:24:46.836Z,10.16
2019-03-04T12:25:46.983Z,10.12
2019-03-04T12:26:46.737Z,10.14
2019-03-04T12:27:46.686Z,10.16
2019-03-04T12:28:46.643Z,10.09
2019-03-04T12:29:46.594Z,10.01
2019-03-04T12:30:46.541Z,10.01
2019-03-04T12:31:46.488Z,10.14
2019-03-04T12:32:46.437Z,10.08
2019-03-04T12:33:46.391Z,9.98
2019-03-04T12:34:46.572Z,9.98
2019-03-04T12:35:46.287Z,9.98
2019-03-04T12:36:46.246Z,10.08
2019-03-04T12:37:46.195Z,10.08
2019-03-04T12:38:46.138Z,9.93
2019-03-04T12:39:46.090Z,10.03
2019-03-04T12:40:46.042Z,10.09
2019-03-04T12:41:45.988Z,10.03
2019-03-04T12:42:45.937Z,9.96
2019-03-04T12:43:46.082Z,9.96
2019-03-04T12:44:45.837Z,10.08
2019-03-04T12:45:45.791Z,9.99
2019-03-04T12:46:45.739Z,10.12
2019-03-04T12:47:45.689Z,10.01
2019-03-04T12:48:45.646Z,9.99
2019-03-04T12:49:45.587Z,10.06
2019-03-04T12:50:45.541Z,9.88
2019-03-04T12:51:45.491Z,10.03
2019-03-04T12:52:45.594Z,9.96
2019-03-04T12:53:45.388Z,10.08
2019-03-04T12:54:45.339Z,10.02
2019-03-04T12:55:45.311Z,10.08
2019-03-04T12:56:45.240Z,10.01
2019-03-04T12:57:45.195Z,10.06
2019-03-04T12:58:45.138Z,10.02
2019-03-04T12:59:45.090Z,10.01
2019-03-04T13:00:45.039Z,10.05
2019-03-04T13:01:44.991Z,10.06
2019-03-04T13:02:44.942Z,10.02